createdAt,value
2022-07-29T00:06:59.891Z,975.66
2022-07-29T00:14:37.009Z,975.59
2022-07-29T00:22:22.753Z,975.6
2022-07-29T00:30:03.182Z,975.54
2022-07-29T00:37:37.900Z,975.41
2022-07-29T00:45:11.173Z,975.28
2022-07-29T00:52:35.184Z,975.26
2022-07-29T01:00:14.471Z,975.21
2022-07-29T01:07:56.124Z,975.2
2022-07-29T01:15:50.029Z,975.22
2022-07-29T01:23:58.859Z,975.18
2022-07-29T01:32:03.449Z,975.22
2022-07-29T01:40:09.203Z,975.2
2022-07-29T01:48:31.215Z,975.21
2022-07-29T01:56:46.884Z,975.15
2022-07-29T02:04:30.509Z,975.18
2022-07-29T02:12:29.433Z,975.16
2022-07-29T02:20:15.949Z,975.22
2022-07-29T02:27:52.823Z,975.2
2022-07-29T02:35:35.394Z,975.18
2022-07-29T02:43:19.200Z,975.17
2022-07-29T02:51:41.265Z,975.1
2022-07-29T02:59:39.885Z,975.12
2022-07-29T03:07:37.932Z,975.18
2022-07-29T03:15:07.587Z,975.19
2022-07-29T03:22:47.266Z,975.18
2022-07-29T03:30:29.783Z,975.17
2022-07-29T03:37:55.273Z,975.17
2022-07-29T03:45:52.154Z,975.2
2022-07-29T03:53:23.264Z,975.18
2022-07-29T04:01:12.394Z,975.15
2022-07-29T04:08:55.278Z,975.15
2022-07-29T04:16:22.978Z,975.19
2022-07-29T04:23:54.475Z,975.26
2022-07-29T04:31:27.457Z,975.37
2022-07-29T04:39:03.927Z,975.37
2022-07-29T04:46:27.010Z,975.43
2022-07-29T04:53:58.484Z,975.47
2022-07-29T05:01:18.732Z,975.49
2022-07-29T05:08:58.579Z,975.52
2022-07-29T05:16:34.985Z,975.55
2022-07-29T05:24:02.470Z,975.59
2022-07-29T05:31:53.787Z,975.63
2022-07-29T05:39:50.783Z,975.57
2022-07-29T05:47:38.659Z,975.56
2022-07-29T05:55:14.923Z,975.55
2022-07-29T06:02:56.211Z,975.54
2022-07-29T06:10:41.517Z,975.65
2022-07-29T06:18:18.427Z,975.66
2022-07-29T06:26:01.089Z,975.67
2022-07-29T06:33:34.672Z,975.7
2022-07-29T06:41:05.736Z,975.73
2022-07-29T06:48:47.392Z,975.74
2022-07-29T06:56:26.566Z,975.77
2022-07-29T07:04:18.777Z,975.8
2022-07-29T07:11:52.566Z,975.94
2022-07-29T07:19:34.082Z,976.05
2022-07-29T07:27:20.812Z,975.96
2022-07-29T07:35:10.453Z,975.98
2022-07-29T07:42:50.956Z,975.94
2022-07-29T07:50:33.794Z,975.9
2022-07-29T07:58:12.349Z,975.84
2022-07-29T08:05:40.163Z,975.81
2022-07-29T08:13:10.900Z,975.86
2022-07-29T08:20:44.113Z,975.86
2022-07-29T08:28:38.732Z,975.89
2022-07-29T08:36:27.012Z,975.98
2022-07-29T08:44:01.539Z,975.94
2022-07-29T08:51:26.698Z,975.91
2022-07-29T08:59:15.413Z,975.92
2022-07-29T09:07:18.705Z,975.89
2022-07-29T09:15:03.407Z,975.94
2022-07-29T09:23:11.034Z,975.92
2022-07-29T09:31:06.328Z,975.92
2022-07-29T09:39:06.036Z,975.81
2022-07-29T09:46:36.919Z,975.77
2022-07-29T09:54:26.200Z,975.72
2022-07-29T10:02:22.099Z,975.75
2022-07-29T10:10:10.781Z,975.72
2022-07-29T10:18:07.828Z,975.68
2022-07-29T10:25:47.453Z,975.67
2022-07-29T10:33:42.426Z,975.63
2022-07-29T10:41:45.847Z,975.57
2022-07-29T10:49:46.010Z,975.57
2022-07-29T10:57:58.109Z,975.48
2022-07-29T11:05:42.005Z,975.58
2022-07-29T11:13:20.508Z,975.49
2022-07-29T11:21:49.076Z,975.48
2022-07-29T11:29:44.682Z,975.34
2022-07-29T11:37:52.849Z,975.3
2022-07-29T11:45:51.547Z,975.36
2022-07-29T11:53:36.358Z,975.3
2022-07-29T12:01:23.502Z,975.37
2022-07-29T12:09:17.104Z,975.4
2022-07-29T12:16:56.384Z,975.34
2022-07-29T12:24:45.394Z,975.33
2022-07-29T12:32:38.075Z,975.24
2022-07-29T12:40:11.517Z,975.33
2022-07-29T12:47:54.015Z,975.35
2022-07-29T12:55:32.561Z,975.35
2022-07-29T13:03:20.542Z,975.35
2022-07-29T13:11:17.924Z,975.37
2022-07-29T13:19:13.297Z,975.52
2022-07-29T13:26:51.547Z,975.53
2022-07-29T13:34:35.547Z,975.49
2022-07-29T13:42:12.194Z,975.5
2022-07-29T13:49:38.125Z,975.34
2022-07-29T13:57:21.919Z,975.3
2022-07-29T14:05:13.556Z,975.16
2022-07-29T14:12:36.689Z,975.27
2022-07-29T14:20:02.854Z,975.23
2022-07-29T14:27:38.955Z,975.16
2022-07-29T14:35:13.647Z,975.24
2022-07-29T14:42:35.584Z,975.15
2022-07-29T14:49:57.073Z,975.07
2022-07-29T14:57:20.559Z,975.14
2022-07-29T15:04:38.388Z,975.18
2022-07-29T15:12:00.807Z,975.17
2022-07-29T15:19:49.663Z,975.11
2022-07-29T15:27:15.617Z,975.12
2022-07-29T15:34:47.281Z,975.08
2022-07-29T15:42:12.959Z,975.18
2022-07-29T15:49:50.411Z,975.1
2022-07-29T15:57:23.702Z,975.08
2022-07-29T16:04:56.809Z,975.06
2022-07-29T16:12:21.843Z,975.01
2022-07-29T16:20:02.150Z,975.02
2022-07-29T16:27:22.179Z,975.03
2022-07-29T16:34:54.256Z,975.05
2022-07-29T16:42:46.815Z,975.17
2022-07-29T16:50:06.431Z,975.25
2022-07-29T16:57:46.298Z,975.33
2022-07-29T17:05:50.566Z,975.37
2022-07-29T17:13:21.324Z,975.55
2022-07-29T17:20:45.416Z,975.68
2022-07-29T17:28:23.171Z,975.82
2022-07-29T17:35:53.819Z,975.88
2022-07-29T17:43:40.860Z,975.96
2022-07-29T17:51:25.986Z,976.16
2022-07-29T17:59:01.917Z,976.29
2022-07-29T18:06:38.367Z,976.34
2022-07-29T18:14:18.846Z,976.43
2022-07-29T18:21:54.802Z,976.59
2022-07-29T18:29:36.782Z,976.76
2022-07-29T18:37:11.025Z,976.84
2022-07-29T18:44:49.466Z,976.94
2022-07-29T18:52:21.952Z,977.03
2022-07-29T19:00:00.039Z,977.05
2022-07-29T19:07:42.279Z,977.22
2022-07-29T19:15:21.161Z,977.28
2022-07-29T19:23:01.076Z,977.39
2022-07-29T19:30:47.222Z,977.39
2022-07-29T19:38:19.723Z,977.57
2022-07-29T19:46:02.347Z,977.67
2022-07-29T19:53:35.331Z,977.78
2022-07-29T20:00:55.727Z,977.81
2022-07-29T20:08:20.789Z,977.83
2022-07-29T20:15:49.586Z,977.89
2022-07-29T20:23:20.785Z,977.96
2022-07-29T20:31:01.020Z,977.97
2022-07-29T20:38:35.750Z,978.09
2022-07-29T20:46:14.387Z,978.2
2022-07-29T20:53:42.477Z,978.25
2022-07-29T21:01:13.302Z,978.27
2022-07-29T21:08:57.038Z,978.37
2022-07-29T21:16:22.231Z,978.56
2022-07-29T21:24:07.772Z,978.59
2022-07-29T21:31:45.872Z,978.58
2022-07-29T21:39:35.031Z,978.58
2022-07-29T21:46:54.015Z,978.66
2022-07-29T21:54:30.188Z,978.75
2022-07-29T22:02:01.241Z,978.83
2022-07-29T22:09:37.467Z,978.84
2022-07-29T22:17:04.490Z,978.84
2022-07-29T22:24:44.281Z,978.81
2022-07-29T22:32:16.283Z,978.91
2022-07-29T22:39:50.040Z,978.99
2022-07-29T22:47:46.768Z,979.04
2022-07-29T22:55:34.285Z,979.08
2022-07-29T23:02:52.539Z,979.11
2022-07-29T23:10:16.626Z,979.1
2022-07-29T23:17:55.394Z,979.11
2022-07-29T23:25:25.718Z,979.09
2022-07-29T23:32:48.608Z,979
2022-07-29T23:40:33.507Z,978.88
2022-07-29T23:48:05.335Z,978.85
2022-07-29T23:55:39.848Z,978.83
